Grants Pass, OR

5:29 PM PST on January 28, 2015 (GMT -0800)
Northwest Grants Pass | Change Station
CLOSE
Current Station
Personal Weather Station
Location: Grants Pass, OR
Elevation: 1037 ft
Nearby Weather Stations
Active Advisory: Air Stagnation Advisory

Elev 1037 ft 42.45 °N, 123.33 °W | Updated 12 seconds ago

Partly Cloudy
Partly Cloudy
45.1 °F
Feels Like 45 °F
N
0.0
Wind Variable Wind from SW
Gusts 0.0 mph

Today
High -- | Low -- °F
--% Chance of Precip.
Yesterday
High -- | Low -- °F
Precip. -- in
7:31 AM 5:21 PM
Waxing Gibbous, 69% visible
Pressure 30.27 in
Visibility 10.0 miles
Clouds Clear
Windchill 45 °F
Dew Point 44 °F
Humidity 96%
Rainfall 0.00 in
Snow Depth Not available.
UV 0.0 out of 12
Pollen 5.10 out of 12
Air Quality Not available.
Flu Activity Not available.
METAR KMFR 290053Z 00000KT 10SM CLR 12/03 A3026 RMK AO2 SLP250 T01220033

More Conditions Fewer Conditions

Pressure 30.27 in
Visibility 10.0 miles
Clouds Clear
Windchill 45 °F
Dew Point 44 °F
Humidity 96%
Rainfall 0.00 in
Snow Depth Not available.
UV 0.0 out of 12
Pollen 5.10 out of 12
Air Quality Not available.
Flu Activity Not available.
METAR KMFR 290053Z 00000KT 10SM CLR 12/03 A3026 RMK AO2 SLP250 T01220033

More Conditions Fewer Conditions

10-Day Weather Forecast

Almanac

Astronomy

Jan. 28, 2015 Rise Set
Actual Time
Civil Twilight
Nautical Twilight
Astronomical Twilight
Moon
Length of Visible Light
Length of Day
Tomorrow will be .
, % of the Moon is Illuminated

Today's Extremes

State Highs State Lows

Community

WunderPhotos

Upload Photos

1,791,314 photos uploaded!

WunderBlogs® & News

Nearby

Air Quality

  Air Quality AQ Index Pollutant
Not available.

Snow Depth

Station Depth Elevation

Earthquake Activity

City Distance Mag. Time & Date
Minimum magnitude displayed is 2.5.

Coastal Water Temperatures

Place Temperature

Nearby Weather Stations